Time;durP1;ratioP1;P1;durP2;ratioP2;P2;SDS_P1;SDS_P2;PMS_P1;PMS_P2;Temp;Humidity;BMP_temperature;BMP_pressure;BME280_temperature;BME280_humidity;BME280_pressure;Samples;Min_cycle;Max_cycle;Signal;HPM_P1;HPM_P2
2022/07/25 00:00:30;;;;;;;9.30;4.53;;;26.30;51.50;;;;;;5007491;28;20297;-91
2022/07/25 00:02:57;;;;;;;11.87;4.90;;;26.30;52.10;;;;;;5008726;28;20237;-91
2022/07/25 00:05:25;;;;;;;10.87;4.93;;;26.30;51.80;;;;;;5010038;28;20687;-90
2022/07/25 00:07:52;;;;;;;9.70;4.33;;;26.20;51.90;;;;;;5009220;28;20320;-90
2022/07/25 00:10:20;;;;;;;9.30;4.07;;;26.30;51.80;;;;;;5009044;28;20209;-91
2022/07/25 00:12:48;;;;;;;7.87;3.60;;;26.20;51.90;;;;;;5009403;28;20257;-91
2022/07/25 00:15:15;;;;;;;8.87;4.13;;;26.20;52.00;;;;;;5011315;28;20201;-91
2022/07/25 00:17:45;;;;;;;9.30;4.27;;;26.10;51.90;;;;;;5008948;28;20264;-91
2022/07/25 00:20:13;;;;;;;11.37;4.80;;;26.10;52.20;;;;;;5006137;28;20205;-91
2022/07/25 00:22:42;;;;;;;7.13;3.83;;;26.10;52.10;;;;;;5006562;28;20244;-91
2022/07/25 00:25:12;;;;;;;17.70;7.37;;;26.10;52.60;;;;;;5009060;28;20293;-91
2022/07/25 00:27:39;;;;;;;8.17;3.93;;;26.00;52.30;;;;;;5008690;28;20209;-90
2022/07/25 00:30:08;;;;;;;9.37;4.50;;;26.00;52.20;;;;;;5008430;28;20233;-92
2022/07/25 00:32:35;;;;;;;10.17;4.73;;;26.00;52.80;;;;;;5009204;28;20233;-92
2022/07/25 00:35:02;;;;;;;11.60;4.73;;;26.00;52.80;;;;;;5006255;28;20225;-92
2022/07/25 00:37:29;;;;;;;8.63;4.27;;;26.00;52.70;;;;;;5008959;28;20237;-92
2022/07/25 00:39:58;;;;;;;9.57;4.73;;;26.00;53.00;;;;;;5008670;28;20216;-91
2022/07/25 00:42:25;;;;;;;9.07;4.40;;;25.90;53.40;;;;;;5009435;28;20283;-91
2022/07/25 00:44:52;;;;;;;10.83;4.97;;;25.90;53.80;;;;;;5008613;28;20759;-91
2022/07/25 00:47:20;;;;;;;8.63;4.50;;;25.90;53.30;;;;;;5009175;28;20702;-90
2022/07/25 00:49:47;;;;;;;12.53;5.30;;;25.90;53.00;;;;;;5008619;28;20209;-92
2022/07/25 00:52:14;;;;;;;10.90;5.07;;;25.90;53.10;;;;;;5007545;28;20249;-91
2022/07/25 00:54:43;;;;;;;8.80;4.20;;;25.80;53.30;;;;;;5008377;28;20205;-91
2022/07/25 00:57:12;;;;;;;8.60;4.37;;;25.80;53.30;;;;;;5001965;28;20198;-90
2022/07/25 00:59:40;;;;;;;11.73;5.17;;;25.80;53.20;;;;;;4997128;28;20299;-91
2022/07/25 01:02:07;;;;;;;10.50;4.90;;;25.80;53.20;;;;;;5008722;28;20205;-90
2022/07/25 01:04:34;;;;;;;9.77;5.20;;;25.80;53.70;;;;;;5007646;28;20718;-90
2022/07/25 01:07:04;;;;;;;11.53;6.33;;;25.80;53.00;;;;;;5006870;28;20209;-92
2022/07/25 01:09:34;;;;;;;10.73;5.67;;;25.80;53.00;;;;;;5008114;28;20275;-91
2022/07/25 01:12:01;;;;;;;11.97;5.30;;;25.70;52.90;;;;;;5008134;28;20217;-91
2022/07/25 01:14:30;;;;;;;11.53;5.70;;;25.70;52.90;;;;;;5008021;28;20205;-91
2022/07/25 01:16:57;;;;;;;14.80;5.50;;;25.70;53.20;;;;;;5008960;28;20241;-91
2022/07/25 01:19:26;;;;;;;15.27;6.70;;;25.70;53.00;;;;;;5005469;28;20209;-91
2022/07/25 01:21:55;;;;;;;12.50;6.00;;;25.70;53.20;;;;;;5006156;28;20256;-90
2022/07/25 01:24:25;;;;;;;16.77;7.10;;;25.60;53.00;;;;;;5006922;28;20197;-90
2022/07/25 01:26:52;;;;;;;11.70;5.13;;;25.60;52.80;;;;;;4998379;28;20198;-90
2022/07/25 01:29:19;;;;;;;14.43;6.30;;;25.60;52.90;;;;;;5007950;28;20256;-90
2022/07/25 01:31:46;;;;;;;14.57;6.20;;;25.60;53.20;;;;;;5006888;28;20229;-90
2022/07/25 01:34:13;;;;;;;14.63;5.53;;;25.60;53.20;;;;;;5008220;28;20322;-91
2022/07/25 01:36:41;;;;;;;11.43;5.43;;;25.50;53.30;;;;;;5006671;28;20212;-91
2022/07/25 01:39:10;;;;;;;12.00;5.40;;;25.60;53.30;;;;;;5007668;28;20209;-90
2022/07/25 01:41:38;;;;;;;12.83;6.17;;;25.50;53.30;;;;;;5007471;28;20299;-91
2022/07/25 01:44:05;;;;;;;12.13;5.33;;;25.50;53.20;;;;;;5008197;28;20213;-90
2022/07/25 01:46:33;;;;;;;10.83;5.37;;;25.50;53.20;;;;;;5007389;28;20240;-90
2022/07/25 01:49:00;;;;;;;12.67;5.90;;;25.50;53.00;;;;;;5008032;28;20271;-89
2022/07/25 01:51:27;;;;;;;16.23;6.83;;;25.50;53.00;;;;;;5005679;28;20194;-90
2022/07/25 01:53:54;;;;;;;10.80;5.40;;;25.50;53.30;;;;;;5008355;28;20217;-91
2022/07/25 01:56:22;;;;;;;13.60;5.83;;;25.50;53.00;;;;;;5007137;28;20243;-90
2022/07/25 01:58:50;;;;;;;13.30;5.93;;;25.40;53.00;;;;;;5008396;28;20308;-91
2022/07/25 02:01:17;;;;;;;14.07;6.43;;;25.40;52.90;;;;;;5007044;28;20237;-90
2022/07/25 02:03:44;;;;;;;8.93;4.77;;;25.40;52.80;;;;;;5007777;28;20276;-90
2022/07/25 02:06:13;;;;;;;8.50;4.57;;;25.40;52.90;;;;;;5006913;28;20213;-90
2022/07/25 02:08:40;;;;;;;9.80;4.63;;;25.40;52.80;;;;;;5008166;28;20217;-90
2022/07/25 02:11:07;;;;;;;9.20;4.80;;;25.30;52.90;;;;;;5007339;28;20209;-90
2022/07/25 02:13:37;;;;;;;8.90;4.37;;;25.40;52.90;;;;;;5005362;28;20233;-90
2022/07/25 02:16:04;;;;;;;9.67;4.57;;;25.30;52.80;;;;;;5007518;28;20217;-89
2022/07/25 02:18:31;;;;;;;12.97;5.70;;;25.30;52.90;;;;;;5007726;28;20621;-90
2022/07/25 02:20:59;;;;;;;11.80;5.33;;;25.30;52.80;;;;;;5002003;28;20374;-91
2022/07/25 02:23:26;;;;;;;14.93;6.23;;;25.30;52.80;;;;;;5006290;28;20204;-90
2022/07/25 02:25:53;;;;;;;12.63;5.33;;;25.30;52.70;;;;;;5009037;28;20292;-91
2022/07/25 02:28:20;;;;;;;13.97;5.43;;;25.20;52.70;;;;;;5012368;28;20243;-91
2022/07/25 02:30:48;;;;;;;12.27;4.50;;;25.20;52.60;;;;;;5018361;28;20248;-90
2022/07/25 02:33:16;;;;;;;8.17;3.97;;;25.20;52.60;;;;;;5020321;28;20275;-90
2022/07/25 02:35:43;;;;;;;11.57;5.10;;;25.20;52.60;;;;;;5017200;28;20205;-90
2022/07/25 02:38:10;;;;;;;8.40;4.13;;;25.20;52.60;;;;;;5010021;28;20263;-90
2022/07/25 02:40:38;;;;;;;9.83;4.37;;;25.20;52.60;;;;;;5009683;28;20972;-89
2022/07/25 02:43:05;;;;;;;10.67;4.37;;;25.20;52.60;;;;;;5003679;28;20733;-90
2022/07/25 02:45:33;;;;;;;11.13;4.83;;;25.10;52.50;;;;;;4989190;28;20210;-89
2022/07/25 02:48:01;;;;;;;12.13;4.97;;;25.10;52.50;;;;;;4993494;28;20212;-91
2022/07/25 02:50:30;;;;;;;10.73;4.50;;;25.10;52.60;;;;;;4999617;28;20244;-89
2022/07/25 02:52:57;;;;;;;9.60;4.33;;;25.10;52.60;;;;;;5019776;28;20217;-91
2022/07/25 02:55:28;;;;;;;7.20;3.60;;;25.00;52.50;;;;;;5030886;28;20190;-90
2022/07/25 02:57:56;;;;;;;9.77;4.37;;;25.00;52.60;;;;;;5032152;28;20209;-91
2022/07/25 03:00:23;;;;;;;9.30;3.87;;;25.00;52.70;;;;;;5032483;28;20205;-91
2022/07/25 03:02:51;;;;;;;10.87;4.63;;;24.90;52.70;;;;;;5014100;28;20660;-90
2022/07/25 03:05:19;;;;;;;9.93;4.37;;;24.90;52.90;;;;;;5014156;28;20247;-91
2022/07/25 03:07:49;;;;;;;11.57;4.80;;;24.90;52.90;;;;;;5013462;28;20236;-90
2022/07/25 03:10:17;;;;;;;12.47;5.30;;;24.90;53.20;;;;;;5012728;28;20244;-91
2022/07/25 03:12:44;;;;;;;13.27;4.50;;;24.80;53.10;;;;;;5008935;28;20301;-89
2022/07/25 03:15:12;;;;;;;12.37;4.87;;;24.80;53.10;;;;;;5004399;28;20263;-90
2022/07/25 03:17:40;;;;;;;13.80;5.50;;;24.80;53.30;;;;;;5006449;28;20215;-89
2022/07/25 03:20:09;;;;;;;9.80;4.53;;;24.70;53.30;;;;;;5010774;28;20212;-90
2022/07/25 03:22:41;;;;;;;10.03;4.33;;;24.70;53.30;;;;;;5011494;28;20209;-90
2022/07/25 03:25:09;;;;;;;14.40;5.77;;;24.70;53.60;;;;;;5011861;28;20224;-92
2022/07/25 03:27:36;;;;;;;10.23;4.33;;;24.70;54.10;;;;;;5009514;28;20680;-90
2022/07/25 03:30:04;;;;;;;11.17;4.77;;;24.60;54.00;;;;;;5010099;28;20211;-91
2022/07/25 03:32:31;;;;;;;9.93;4.43;;;24.60;53.50;;;;;;5005743;28;20277;-90
2022/07/25 03:34:58;;;;;;;7.67;3.70;;;24.60;53.50;;;;;;5010586;28;20288;-90
2022/07/25 03:37:26;;;;;;;12.33;4.97;;;24.50;53.40;;;;;;5009823;28;20213;-90
2022/07/25 03:39:55;;;;;;;9.77;4.47;;;24.50;53.60;;;;;;5010736;28;20226;-90
2022/07/25 03:42:23;;;;;;;9.70;4.27;;;24.50;53.70;;;;;;5009950;28;20812;-90
2022/07/25 03:44:50;;;;;;;11.83;4.80;;;24.50;53.70;;;;;;5010873;28;20216;-91
2022/07/25 03:47:18;;;;;;;12.33;4.43;;;24.40;53.60;;;;;;5008308;28;20243;-89
2022/07/25 03:49:47;;;;;;;8.80;3.80;;;24.40;54.00;;;;;;5010477;28;20283;-91
2022/07/25 03:52:15;;;;;;;13.13;5.10;;;24.40;54.00;;;;;;5010126;28;20206;-89
2022/07/25 03:54:42;;;;;;;10.50;4.00;;;24.40;54.30;;;;;;5010500;28;20325;-91
2022/07/25 03:57:11;;;;;;;8.87;4.10;;;24.40;54.30;;;;;;5009805;28;20251;-91
2022/07/25 03:59:38;;;;;;;12.63;4.77;;;24.30;54.50;;;;;;5009978;28;20205;-91
2022/07/25 04:02:05;;;;;;;9.67;3.97;;;24.30;54.60;;;;;;5008536;28;20203;-90
2022/07/25 04:04:32;;;;;;;11.03;4.10;;;24.30;54.60;;;;;;5008546;28;20204;-91
2022/07/25 04:07:01;;;;;;;10.83;4.43;;;24.30;54.60;;;;;;5009279;28;20265;-90
2022/07/25 04:09:28;;;;;;;11.23;3.83;;;24.30;54.70;;;;;;5009480;28;20201;-90
2022/07/25 04:11:55;;;;;;;13.43;4.90;;;24.30;54.70;;;;;;4998119;28;20218;-89
2022/07/25 04:14:24;;;;;;;9.57;3.50;;;24.20;54.80;;;;;;5010413;28;20776;-90
2022/07/25 04:16:51;;;;;;;7.47;3.10;;;24.30;55.10;;;;;;5009578;28;20319;-90
2022/07/25 04:19:19;;;;;;;13.40;4.53;;;24.20;54.90;;;;;;5010689;28;20287;-90
2022/07/25 04:21:51;;;;;;;9.60;3.83;;;24.20;55.00;;;;;;5008786;28;20314;-89
2022/07/25 04:24:18;;;;;;;12.00;4.37;;;24.20;55.40;;;;;;5010180;28;20273;-90
2022/07/25 04:26:45;;;;;;;10.20;4.30;;;24.20;55.30;;;;;;5008999;28;20324;-91
2022/07/25 04:29:12;;;;;;;9.93;3.73;;;24.20;55.60;;;;;;5010150;28;20669;-89
2022/07/25 04:31:40;;;;;;;8.60;3.80;;;24.10;55.50;;;;;;5000615;28;20934;-90
2022/07/25 04:34:07;;;;;;;10.33;4.73;;;24.10;56.00;;;;;;5009458;28;20674;-90
2022/07/25 04:36:34;;;;;;;10.80;4.43;;;24.10;56.00;;;;;;5009367;28;20318;-89
2022/07/25 04:39:06;;;;;;;12.97;4.43;;;24.10;56.00;;;;;;5009034;28;20291;-90
2022/07/25 04:41:33;;;;;;;10.93;4.13;;;24.10;56.50;;;;;;5009520;28;20212;-90
2022/07/25 04:44:00;;;;;;;10.10;4.47;;;24.10;56.40;;;;;;5008671;28;20212;-91
2022/07/25 04:46:27;;;;;;;11.77;4.40;;;24.10;56.50;;;;;;5009129;28;20235;-90
2022/07/25 04:48:56;;;;;;;11.63;4.60;;;24.10;56.50;;;;;;5009534;28;20206;-90
2022/07/25 04:51:23;;;;;;;10.77;4.57;;;24.10;56.90;;;;;;5008152;28;20695;-90
2022/07/25 04:53:53;;;;;;;11.47;4.90;;;24.10;56.90;;;;;;5008430;28;20221;-91
2022/07/25 04:56:20;;;;;;;10.20;4.27;;;24.00;57.70;;;;;;5009664;28;20212;-91
2022/07/25 04:58:48;;;;;;;8.57;3.90;;;24.00;57.30;;;;;;5008277;28;20208;-91
2022/07/25 05:01:14;;;;;;;18.03;6.40;;;24.00;57.30;;;;;;5006436;28;20212;-90
2022/07/25 05:03:42;;;;;;;8.87;3.50;;;24.00;57.50;;;;;;5001215;28;20220;-91
2022/07/25 05:06:10;;;;;;;10.30;3.73;;;24.00;57.80;;;;;;5004728;28;20212;-89
2022/07/25 05:08:41;;;;;;;10.33;4.70;;;24.00;57.90;;;;;;5008596;28;20307;-90
2022/07/25 05:11:08;;;;;;;10.10;3.80;;;23.90;58.10;;;;;;5009633;28;20222;-92
2022/07/25 05:13:36;;;;;;;11.30;4.17;;;23.90;58.00;;;;;;5009476;28;20231;-91
2022/07/25 05:16:04;;;;;;;11.67;4.17;;;23.90;58.20;;;;;;5010548;28;20999;-92
2022/07/25 05:18:31;;;;;;;11.50;4.03;;;24.00;58.50;;;;;;5008606;28;20237;-91
2022/07/25 05:20:59;;;;;;;12.70;4.70;;;23.90;58.50;;;;;;5009596;28;20711;-93
2022/07/25 05:23:29;;;;;;;8.87;3.73;;;23.90;58.70;;;;;;5008657;28;20288;-93
2022/07/25 05:25:56;;;;;;;11.40;4.70;;;23.90;58.80;;;;;;5009148;28;20197;-90
2022/07/25 05:28:23;;;;;;;9.93;4.50;;;23.90;58.80;;;;;;5010463;28;20299;-92
2022/07/25 05:30:52;;;;;;;8.70;3.73;;;23.90;59.00;;;;;;5008008;28;20310;-92
2022/07/25 05:33:19;;;;;;;13.97;5.20;;;23.90;59.10;;;;;;5006390;28;20541;-91
2022/07/25 05:35:46;;;;;;;11.50;4.23;;;23.90;59.00;;;;;;5009812;28;20197;-92
2022/07/25 05:38:15;;;;;;;11.73;3.90;;;23.90;59.40;;;;;;5008706;28;20210;-92
2022/07/25 05:40:44;;;;;;;10.40;4.10;;;23.90;59.60;;;;;;5001180;28;20190;-92
2022/07/25 05:43:11;;;;;;;10.67;4.23;;;23.90;59.70;;;;;;5009363;28;20263;-91
2022/07/25 05:45:39;;;;;;;6.97;3.87;;;23.90;59.60;;;;;;5011728;28;20304;-92
2022/07/25 05:48:07;;;;;;;11.10;4.10;;;24.00;60.00;;;;;;5006476;28;20213;-91
2022/07/25 05:50:36;;;;;;;12.23;4.13;;;24.00;60.30;;;;;;5009267;28;20975;-91
2022/07/25 05:53:03;;;;;;;6.93;3.63;;;24.00;60.20;;;;;;5012416;28;20193;-93
2022/07/25 05:55:30;;;;;;;8.27;3.53;;;24.00;60.20;;;;;;5011376;28;20240;-93
2022/07/25 05:57:59;;;;;;;10.73;4.70;;;24.00;60.40;;;;;;5013646;28;20251;-91
2022/07/25 06:00:26;;;;;;;8.10;3.70;;;24.00;60.70;;;;;;5006436;28;20312;-93
2022/07/25 06:02:58;;;;;;;13.23;4.93;;;24.10;60.80;;;;;;5013594;28;20204;-93
2022/07/25 06:05:25;;;;;;;10.80;4.73;;;24.10;61.30;;;;;;5012014;28;20577;-92
2022/07/25 06:07:57;;;;;;;8.37;3.90;;;24.10;61.20;;;;;;5011961;28;20243;-91
2022/07/25 06:10:24;;;;;;;9.67;4.53;;;24.10;61.50;;;;;;5013169;28;20216;-94
2022/07/25 06:12:51;;;;;;;12.23;3.77;;;24.10;61.30;;;;;;5013768;28;20303;-93
2022/07/25 06:15:22;;;;;;;12.10;3.77;;;24.20;61.60;;;;;;5011192;28;20263;-93
2022/07/25 06:17:50;;;;;;;12.67;5.23;;;24.10;61.80;;;;;;5011937;28;20212;-93
2022/07/25 06:20:20;;;;;;;11.50;4.57;;;24.20;62.20;;;;;;5012044;28;20213;-94
2022/07/25 06:22:47;;;;;;;7.47;3.10;;;24.20;62.20;;;;;;5010375;28;20185;-91
2022/07/25 06:25:14;;;;;;;9.63;3.67;;;24.20;62.30;;;;;;5006390;28;20213;-92
2022/07/25 06:27:43;;;;;;;7.20;3.10;;;24.20;62.30;;;;;;4991516;28;20563;-90
2022/07/25 06:30:12;;;;;;;11.37;4.40;;;24.20;62.30;;;;;;4994621;28;20611;-93
2022/07/25 06:32:41;;;;;;;14.23;4.63;;;24.20;62.60;;;;;;5008802;28;20219;-92
2022/07/25 06:35:09;;;;;;;10.73;3.90;;;24.20;62.60;;;;;;5008890;28;20259;-92
2022/07/25 06:37:38;;;;;;;9.67;4.03;;;24.30;62.20;;;;;;5008651;28;20235;-91
2022/07/25 06:40:09;;;;;;;9.87;4.17;;;24.20;62.50;;;;;;5007680;28;20205;-91
2022/07/25 06:42:38;;;;;;;6.97;3.40;;;24.20;62.60;;;;;;5008343;28;20208;-92
2022/07/25 06:45:08;;;;;;;10.20;3.70;;;24.20;62.60;;;;;;5009358;28;20240;-90
2022/07/25 06:47:36;;;;;;;8.30;3.87;;;24.30;62.50;;;;;;5008838;28;20204;-91
2022/07/25 06:50:05;;;;;;;12.03;4.07;;;24.20;62.60;;;;;;5008400;28;20204;-94
2022/07/25 06:52:32;;;;;;;11.83;4.60;;;24.30;62.70;;;;;;5004807;28;20211;-92
2022/07/25 06:55:00;;;;;;;9.63;3.37;;;24.30;62.40;;;;;;5007667;28;20227;-93
2022/07/25 06:57:30;;;;;;;14.40;4.07;;;24.30;62.30;;;;;;5009613;28;20193;-93
2022/07/25 07:03:09;;;;;;;10.13;3.77;;;24.30;62.90;;;;;;5000897;28;20217;-93
2022/07/25 07:05:46;;;;;;;12.40;4.83;;;24.30;62.70;;;;;;5020370;28;20205;-93
2022/07/25 07:08:14;;;;;;;9.30;3.70;;;24.30;62.70;;;;;;5022900;28;20201;-94
2022/07/25 07:13:26;;;;;;;8.77;3.50;;;24.40;62.50;;;;;;5015948;28;20263;-93
2022/07/25 07:15:55;;;;;;;12.47;3.93;;;24.40;62.40;;;;;;5016600;28;20223;-93
2022/07/25 07:21:38;;;;;;;9.93;3.57;;;24.50;62.40;;;;;;4980867;28;20304;-92
2022/07/25 07:24:07;;;;;;;9.23;3.83;;;24.60;63.00;;;;;;5012197;28;20204;-94
2022/07/25 07:26:38;;;;;;;7.67;3.50;;;24.60;62.40;;;;;;5012430;28;20224;-93
2022/07/25 07:29:06;;;;;;;10.23;3.93;;;24.60;62.20;;;;;;5004833;28;20226;-94
2022/07/25 07:31:33;;;;;;;10.50;4.50;;;24.70;62.30;;;;;;5011689;28;20233;-92
2022/07/25 07:34:00;;;;;;;11.77;4.33;;;24.80;62.20;;;;;;5010215;28;20205;-94
2022/07/25 07:36:30;;;;;;;9.10;3.87;;;24.80;62.30;;;;;;5009538;28;20225;-94
2022/07/25 07:39:25;;;;;;;13.77;4.67;;;24.90;62.20;;;;;;5010761;28;20673;-93
2022/07/25 07:42:01;;;;;;;9.70;4.23;;;24.90;62.30;;;;;;5010719;28;20236;-91
2022/07/25 07:44:31;;;;;;;11.60;4.43;;;25.00;61.80;;;;;;5012448;28;20208;-92
2022/07/25 07:47:01;;;;;;;13.17;5.60;;;25.10;61.60;;;;;;5007317;28;20256;-93
2022/07/25 07:49:29;;;;;;;10.53;4.40;;;25.10;61.50;;;;;;5012272;28;20212;-93
2022/07/25 07:51:59;;;;;;;9.43;4.40;;;25.10;61.30;;;;;;5012140;28;20405;-92
2022/07/25 07:57:12;;;;;;;12.77;5.37;;;25.20;61.10;;;;;;5012282;28;20219;-91
2022/07/25 07:59:39;;;;;;;10.83;5.33;;;25.20;60.90;;;;;;5012792;28;20214;-93
2022/07/25 08:02:06;;;;;;;12.20;5.40;;;25.20;60.90;;;;;;5012608;28;20213;-92
2022/07/25 08:04:35;;;;;;;14.87;6.47;;;25.20;60.80;;;;;;4996991;28;20317;-90
2022/07/25 08:07:03;;;;;;;12.20;5.63;;;25.20;60.80;;;;;;4993516;28;20622;-91
2022/07/25 08:09:31;;;;;;;12.00;5.40;;;25.20;60.80;;;;;;4994891;28;20216;-93
2022/07/25 08:11:58;;;;;;;16.77;6.53;;;25.20;60.80;;;;;;4992629;28;20717;-92
2022/07/25 08:14:26;;;;;;;12.33;5.00;;;25.20;61.00;;;;;;4995743;28;20667;-93
2022/07/25 08:16:56;;;;;;;10.37;4.20;;;25.20;61.10;;;;;;5012607;28;20304;-93
2022/07/25 08:19:29;;;;;;;12.30;5.03;;;25.20;61.10;;;;;;5012168;28;20210;-91
2022/07/25 08:21:56;;;;;;;10.17;4.70;;;25.20;61.00;;;;;;5014213;28;20209;-92
2022/07/25 08:24:24;;;;;;;10.70;4.70;;;25.30;60.80;;;;;;5017289;28;20195;-93
2022/07/25 08:26:52;;;;;;;12.87;5.03;;;25.30;60.50;;;;;;5014968;28;20264;-93
2022/07/25 08:29:19;;;;;;;15.33;5.50;;;25.30;60.30;;;;;;5018299;28;20201;-92
2022/07/25 08:31:46;;;;;;;12.60;4.47;;;25.40;60.00;;;;;;5017808;28;20317;-91
2022/07/25 08:34:13;;;;;;;16.13;6.00;;;25.40;59.90;;;;;;5017929;28;20229;-93
2022/07/25 08:36:45;;;;;;;9.53;3.87;;;25.40;59.90;;;;;;5014478;28;20225;-93
2022/07/25 08:39:12;;;;;;;15.00;4.30;;;25.40;60.70;;;;;;5014925;28;20225;-96
2022/07/25 08:41:41;;;;;;;9.00;3.73;;;25.40;59.90;;;;;;5006286;28;20206;-95
2022/07/25 08:44:15;;;;;;;9.63;3.60;;;25.40;59.90;;;;;;4994864;28;20190;-93
2022/07/25 08:46:48;;;;;;;12.63;4.80;;;25.50;59.80;;;;;;4994152;28;20193;-92
2022/07/25 08:49:24;;;;;;;12.17;4.03;;;25.50;59.60;;;;;;5013494;28;20244;-92
2022/07/25 08:51:51;;;;;;;11.00;4.00;;;25.50;59.00;;;;;;5013214;28;20209;-89
2022/07/25 08:54:20;;;;;;;9.23;3.33;;;25.50;59.00;;;;;;5010516;28;20285;-93
2022/07/25 08:56:47;;;;;;;11.23;4.47;;;25.60;59.00;;;;;;5012327;28;20635;-93
2022/07/25 08:59:21;;;;;;;5.10;2.50;;;25.50;58.90;;;;;;5019601;28;20210;-94
2022/07/25 09:01:48;;;;;;;15.27;5.57;;;25.50;59.00;;;;;;5008643;28;20293;-93
2022/07/25 09:04:21;;;;;;;6.20;3.03;;;25.50;59.10;;;;;;5007544;28;20202;-95
2022/07/25 09:07:36;;;;;;;9.40;4.07;;;25.50;59.00;;;;;;5004021;28;20202;-95
2022/07/25 09:10:15;;;;;;;8.93;3.67;;;25.60;58.90;;;;;;5007776;28;20245;-95
2022/07/25 09:12:52;;;;;;;11.87;3.90;;;25.60;58.90;;;;;;5004993;28;20721;-94
2022/07/25 09:15:35;;;;;;;5.77;2.83;;;25.60;58.90;;;;;;5004432;28;20240;-96
2022/07/25 09:18:05;;;;;;;9.63;3.53;;;25.60;58.90;;;;;;5012912;28;20198;-94
2022/07/25 09:20:52;;;;;;;8.60;3.13;;;25.60;58.60;;;;;;5006502;28;20284;-93
2022/07/25 09:23:32;;;;;;;4.63;2.27;;;25.60;58.40;;;;;;5006758;28;20229;-92
2022/07/25 09:26:20;;;;;;;6.60;2.97;;;25.70;58.50;;;;;;5007354;28;20202;-95
2022/07/25 09:28:50;;;;;;;10.43;4.23;;;25.70;58.20;;;;;;5009189;28;20227;-93
2022/07/25 09:31:33;;;;;;;11.27;3.60;;;25.70;58.20;;;;;;5007306;28;20654;-96
2022/07/25 09:34:06;;;;;;;5.53;2.63;;;25.70;58.10;;;;;;5006383;28;20292;-95
2022/07/25 09:36:50;;;;;;;7.47;3.00;;;25.70;58.20;;;;;;5007570;28;20320;-94
2022/07/25 09:39:20;;;;;;;5.60;2.40;;;25.70;57.90;;;;;;5000841;28;20536;-93
2022/07/25 09:41:49;;;;;;;8.97;3.30;;;25.80;57.70;;;;;;5014660;28;20753;-91
2022/07/25 09:44:17;;;;;;;9.07;2.90;;;25.80;57.50;;;;;;5002484;28;20305;-95
2022/07/25 09:46:46;;;;;;;18.33;5.67;;;25.80;57.30;;;;;;4999844;28;20197;-93
2022/07/25 09:49:18;;;;;;;9.87;3.83;;;25.80;57.20;;;;;;4998949;28;20205;-91
2022/07/25 09:51:49;;;;;;;15.67;5.67;;;25.80;57.30;;;;;;5001707;28;20202;-93
2022/07/25 09:54:24;;;;;;;12.47;4.23;;;25.80;57.30;;;;;;4999466;28;20198;-94
2022/07/25 09:56:59;;;;;;;10.53;3.83;;;25.90;57.30;;;;;;5010142;28;20224;-96
2022/07/25 10:00:07;;;;;;;13.87;4.63;;;25.90;56.80;;;;;;5009638;28;20201;-95
2022/07/25 10:02:55;;;;;;;5.90;2.00;;;25.90;56.70;;;;;;5008908;28;20216;-95
2022/07/25 10:05:38;;;;;;;15.53;4.50;;;25.90;56.40;;;;;;5007035;28;20214;-93
2022/07/25 10:08:11;;;;;;;5.43;2.40;;;26.00;56.50;;;;;;5008975;28;20197;-96
2022/07/25 10:10:43;;;;;;;11.57;4.33;;;26.00;56.50;;;;;;5008649;28;20213;-95
2022/07/25 10:13:14;;;;;;;8.57;3.37;;;26.00;56.60;;;;;;5002260;28;20209;-96
2022/07/25 10:15:52;;;;;;;10.33;4.13;;;26.00;56.40;;;;;;5004521;28;20308;-96
2022/07/25 10:18:22;;;;;;;12.53;4.50;;;25.90;56.30;;;;;;5010321;28;20680;-95
2022/07/25 10:24:05;;;;;;;19.10;6.30;;;25.90;56.30;;;;;;5001882;28;20799;-94
2022/07/25 10:26:39;;;;;;;8.70;3.27;;;25.90;56.60;;;;;;5004499;28;20216;-96
2022/07/25 10:29:09;;;;;;;8.17;3.23;;;25.90;56.90;;;;;;5001693;28;20222;-95
2022/07/25 10:34:36;;;;;;;8.20;3.27;;;26.00;56.60;;;;;;5009555;28;20216;-92
2022/07/25 10:37:12;;;;;;;7.23;2.77;;;26.10;56.00;;;;;;5038820;28;20259;-94
2022/07/25 10:39:43;;;;;;;15.33;4.60;;;26.20;55.80;;;;;;5021190;28;20208;-93
2022/07/25 10:42:14;;;;;;;17.97;4.80;;;26.20;56.60;;;;;;5035034;28;20276;-95
2022/07/25 10:50:47;;;;;;;15.40;4.80;;;26.40;55.50;;;;;;5014915;28;20228;-94
2022/07/25 10:53:33;;;;;;;9.60;3.27;;;26.50;55.00;;;;;;5017342;28;20209;-94
2022/07/25 10:59:31;;;;;;;10.60;3.87;;;26.60;54.10;;;;;;5010242;28;20202;-93
2022/07/25 11:02:04;;;;;;;9.23;3.13;;;26.60;54.30;;;;;;5014343;28;20208;-95
2022/07/25 11:04:34;;;;;;;13.07;3.83;;;26.60;54.70;;;;;;5021803;28;20639;-96
2022/07/25 11:09:59;;;;;;;9.37;3.07;;;26.70;53.80;;;;;;5007111;28;20221;-96
2022/07/25 11:13:03;;;;;;;10.80;4.20;;;26.80;53.90;;;;;;5016453;28;20209;-96
2022/07/25 11:15:31;;;;;;;7.27;2.93;;;27.00;53.80;;;;;;5010597;28;20244;-95
2022/07/25 11:18:00;;;;;;;10.83;2.90;;;27.00;53.10;;;;;;5017729;28;20202;-94
2022/07/25 11:20:28;;;;;;;8.27;2.83;;;27.10;53.20;;;;;;5019860;28;20638;-96
2022/07/25 11:23:04;;;;;;;6.13;2.63;;;27.10;53.10;;;;;;5020986;28;20217;-95
2022/07/25 11:25:32;;;;;;;11.37;3.60;;;27.10;52.80;;;;;;5021950;28;20209;-93
2022/07/25 11:28:02;;;;;;;8.50;2.80;;;27.10;52.90;;;;;;5020148;28;20557;-96
2022/07/25 11:30:31;;;;;;;8.83;2.80;;;27.10;52.70;;;;;;5017182;28;20205;-95
2022/07/25 11:33:01;;;;;;;7.83;2.43;;;27.10;52.90;;;;;;5016818;28;20231;-96
2022/07/25 11:35:44;;;;;;;6.73;2.70;;;27.10;52.70;;;;;;5019448;28;20225;-96
2022/07/25 11:38:18;;;;;;;9.30;6.07;;;27.10;52.50;;;;;;5019327;28;20716;-94
2022/07/25 11:40:49;;;;;;;9.70;3.90;;;27.20;52.40;;;;;;5018103;28;20596;-96
2022/07/25 11:43:24;;;;;;;7.53;2.83;;;27.20;52.40;;;;;;5022903;28;20209;-96
2022/07/25 11:46:07;;;;;;;7.83;2.87;;;27.30;52.10;;;;;;5026867;28;20189;-96
2022/07/25 11:56:48;;;;;;;7.47;2.37;;;27.50;51.80;;;;;;5031403;28;20220;-94
2022/07/25 11:59:41;;;;;;;8.40;2.47;;;27.50;50.90;;;;;;5025855;28;20194;-95
2022/07/25 12:03:03;;;;;;;6.90;2.60;;;27.60;51.50;;;;;;5023323;28;20190;-96
2022/07/25 12:05:32;;;;;;;4.50;2.03;;;27.70;51.30;;;;;;5007241;28;20300;-95
2022/07/25 12:08:09;;;;;;;6.00;2.43;;;27.80;51.60;;;;;;5023172;28;20212;-96
2022/07/25 12:13:26;;;;;;;10.13;3.17;;;28.00;50.70;;;;;;5016114;28;20256;-95
2022/07/25 12:15:56;;;;;;;8.30;2.60;;;28.10;49.80;;;;;;5015930;28;20292;-95
2022/07/25 12:18:25;;;;;;;7.83;2.53;;;28.10;50.30;;;;;;5015246;28;20260;-96
2022/07/25 12:20:56;;;;;;;5.53;2.40;;;28.20;49.70;;;;;;5016439;28;20285;-94
2022/07/25 12:23:23;;;;;;;5.67;2.63;;;28.20;49.20;;;;;;5020721;28;20201;-95
2022/07/25 12:25:54;;;;;;;7.87;1.60;;;28.30;49.40;;;;;;5041277;22;20260;-95
2022/07/25 12:28:30;;;;;;;7.33;2.30;;;28.20;49.20;;;;;;5022262;28;20233;-96
2022/07/25 12:34:15;;;;;;;7.40;2.73;;;28.20;48.80;;;;;;5028944;28;20212;-96
2022/07/25 12:36:48;;;;;;;8.90;2.60;;;28.20;49.00;;;;;;5011613;28;20221;-96
2022/07/25 12:39:18;;;;;;;2.60;1.30;;;28.20;49.00;;;;;;5022318;28;20635;-95
2022/07/25 12:42:02;;;;;;;7.87;3.03;;;28.20;48.60;;;;;;5025762;28;20201;-95
2022/07/25 12:47:57;;;;;;;8.87;2.63;;;28.10;48.90;;;;;;5022945;28;20212;-96
2022/07/25 12:50:39;;;;;;;5.77;2.07;;;28.20;49.20;;;;;;5022555;28;20206;-95
2022/07/25 12:53:14;;;;;;;5.70;2.10;;;28.20;48.70;;;;;;5013442;28;20795;-95
2022/07/25 12:55:45;;;;;;;26.23;6.43;;;28.20;48.50;;;;;;5003806;28;20254;-94
2022/07/25 12:58:19;;;;;;;6.90;2.93;;;28.30;48.40;;;;;;5016309;28;20610;-95
2022/07/25 13:00:55;;;;;;;5.70;2.30;;;28.30;48.70;;;;;;5003040;28;20202;-96
2022/07/25 13:03:36;;;;;;;4.57;1.87;;;28.30;48.10;;;;;;5015344;28;20197;-96
2022/07/25 13:06:07;;;;;;;6.17;2.63;;;28.20;48.00;;;;;;5018166;28;20202;-95
2022/07/25 13:08:37;;;;;;;6.07;2.43;;;28.30;48.20;;;;;;5015814;28;20236;-96
2022/07/25 13:14:07;;;;;;;6.43;2.30;;;28.10;48.00;;;;;;5021627;28;20822;-94
2022/07/25 13:19:45;;;;;;;9.57;3.00;;;28.10;48.00;;;;;;5021470;28;20237;-95
2022/07/25 13:22:50;;;;;;;7.00;2.47;;;28.00;48.00;;;;;;5019103;28;20204;-96
2022/07/25 13:25:18;;;;;;;4.47;1.77;;;28.00;48.10;;;;;;5010440;28;20220;-95
2022/07/25 13:27:55;;;;;;;5.30;1.97;;;27.90;48.40;;;;;;5021302;28;20233;-96
2022/07/25 13:30:25;;;;;;;6.57;2.37;;;27.90;48.20;;;;;;5019942;28;20205;-96
2022/07/25 13:32:59;;;;;;;5.33;1.47;;;27.90;48.00;;;;;;5019239;28;20543;-94
2022/07/25 13:36:00;;;;;;;8.53;3.07;;;27.80;47.80;;;;;;5018213;28;20212;-94
2022/07/25 13:38:33;;;;;;;8.70;2.03;;;27.80;47.80;;;;;;5025804;28;20206;-96
2022/07/25 13:41:09;;;;;;;6.60;2.70;;;27.80;48.50;;;;;;5025458;28;20229;-96
2022/07/25 13:43:41;;;;;;;9.53;2.80;;;27.80;48.30;;;;;;5030031;28;20264;-96
2022/07/25 13:46:17;;;;;;;8.77;2.50;;;27.80;48.10;;;;;;5028679;28;20595;-95
2022/07/25 13:48:50;;;;;;;7.60;2.90;;;27.90;48.00;;;;;;5029715;28;20204;-96
2022/07/25 13:51:20;;;;;;;6.87;2.57;;;27.90;48.10;;;;;;5023224;28;20208;-96